In Rescue
 
Open Full Screen Window  High Contrast Mode
Wind Gusting 14 knots
06
April 20, 2024 10:00 AM EDT
Present Weather: Light Drizzle
Weather Information
Wind Direction
  270 °
Wind Speed
  06 kt (7 mph)
Wind Gust
  14 kt (16 mph)
Altimeter
29.92 in
Visibility
10 SM
Temperature
04° C
39° F
Dewpoint
01° C
34° F
Humidity
81%
Sky Condition
Overcast @ 3,700 ft
Scattered @ 2,500 ft
VFR

METAR KCDA 201400Z AUTO 27006G14KT 10SM -DZ SCT025 OVC037 04/01 A2992 RMK AO2 T00430005

FAA Disclaimer: The data displayed is for advisory purposes only and is not to be used for flight planning or operations.